sensor_id;sensor_type;location;lat;lon;timestamp;P1;durP1;ratioP1;P2;durP2;ratioP2
29044;SDS011;16133;49.486;12.176;2024-01-30T00:00:31;23.73;;;11.15;;
29044;SDS011;16133;49.486;12.176;2024-01-30T00:02:56;30.77;;;11.60;;
29044;SDS011;16133;49.486;12.176;2024-01-30T00:05:22;27.35;;;11.55;;
29044;SDS011;16133;49.486;12.176;2024-01-30T00:07:47;27.30;;;12.18;;
29044;SDS011;16133;49.486;12.176;2024-01-30T00:10:12;25.05;;;12.10;;
29044;SDS011;16133;49.486;12.176;2024-01-30T00:12:38;25.38;;;11.70;;
29044;SDS011;16133;49.486;12.176;2024-01-30T00:15:03;24.35;;;11.43;;
29044;SDS011;16133;49.486;12.176;2024-01-30T00:17:30;26.25;;;12.10;;
29044;SDS011;16133;49.486;12.176;2024-01-30T00:19:55;23.30;;;10.60;;
29044;SDS011;16133;49.486;12.176;2024-01-30T00:22:20;29.58;;;12.13;;
29044;SDS011;16133;49.486;12.176;2024-01-30T00:24:46;23.88;;;10.98;;
29044;SDS011;16133;49.486;12.176;2024-01-30T00:27:11;19.75;;;10.77;;
29044;SDS011;16133;49.486;12.176;2024-01-30T00:29:36;23.48;;;10.70;;
29044;SDS011;16133;49.486;12.176;2024-01-30T00:32:02;22.83;;;9.93;;
29044;SDS011;16133;49.486;12.176;2024-01-30T00:34:27;23.92;;;10.32;;
29044;SDS011;16133;49.486;12.176;2024-01-30T00:36:53;20.88;;;10.07;;
29044;SDS011;16133;49.486;12.176;2024-01-30T00:39:18;23.60;;;9.95;;
29044;SDS011;16133;49.486;12.176;2024-01-30T00:41:44;22.35;;;9.98;;
29044;SDS011;16133;49.486;12.176;2024-01-30T00:44:10;19.00;;;9.48;;
29044;SDS011;16133;49.486;12.176;2024-01-30T00:46:35;22.15;;;9.38;;
29044;SDS011;16133;49.486;12.176;2024-01-30T00:49:01;23.45;;;10.25;;
29044;SDS011;16133;49.486;12.176;2024-01-30T00:51:26;21.85;;;9.57;;
29044;SDS011;16133;49.486;12.176;2024-01-30T00:53:54;23.80;;;10.32;;
29044;SDS011;16133;49.486;12.176;2024-01-30T00:56:20;19.10;;;9.27;;
29044;SDS011;16133;49.486;12.176;2024-01-30T00:58:45;24.27;;;10.27;;
29044;SDS011;16133;49.486;12.176;2024-01-30T01:01:11;25.55;;;10.68;;
29044;SDS011;16133;49.486;12.176;2024-01-30T01:03:36;22.45;;;9.73;;
29044;SDS011;16133;49.486;12.176;2024-01-30T01:06:01;18.58;;;9.40;;
29044;SDS011;16133;49.486;12.176;2024-01-30T01:08:27;25.95;;;10.27;;
29044;SDS011;16133;49.486;12.176;2024-01-30T01:10:52;20.23;;;9.77;;
29044;SDS011;16133;49.486;12.176;2024-01-30T01:13:17;20.83;;;9.68;;
29044;SDS011;16133;49.486;12.176;2024-01-30T01:15:43;17.17;;;8.93;;
29044;SDS011;16133;49.486;12.176;2024-01-30T01:18:08;19.23;;;8.15;;
29044;SDS011;16133;49.486;12.176;2024-01-30T01:20:34;19.20;;;10.52;;
29044;SDS011;16133;49.486;12.176;2024-01-30T01:22:59;23.02;;;9.85;;
29044;SDS011;16133;49.486;12.176;2024-01-30T01:25:24;17.67;;;8.82;;
29044;SDS011;16133;49.486;12.176;2024-01-30T01:27:50;14.43;;;8.20;;
29044;SDS011;16133;49.486;12.176;2024-01-30T01:30:17;20.67;;;9.80;;
29044;SDS011;16133;49.486;12.176;2024-01-30T01:32:50;21.33;;;9.48;;
29044;SDS011;16133;49.486;12.176;2024-01-30T01:35:23;21.15;;;8.63;;
29044;SDS011;16133;49.486;12.176;2024-01-30T01:37:52;17.80;;;8.35;;
29044;SDS011;16133;49.486;12.176;2024-01-30T01:40:26;19.70;;;8.40;;
29044;SDS011;16133;49.486;12.176;2024-01-30T01:42:53;20.20;;;8.48;;
29044;SDS011;16133;49.486;12.176;2024-01-30T01:45:19;18.08;;;8.20;;
29044;SDS011;16133;49.486;12.176;2024-01-30T01:47:46;17.05;;;7.93;;
29044;SDS011;16133;49.486;12.176;2024-01-30T01:50:13;24.50;;;9.15;;
29044;SDS011;16133;49.486;12.176;2024-01-30T01:52:43;23.23;;;8.43;;
29044;SDS011;16133;49.486;12.176;2024-01-30T01:55:10;19.52;;;9.38;;
29044;SDS011;16133;49.486;12.176;2024-01-30T01:57:37;20.88;;;8.80;;
29044;SDS011;16133;49.486;12.176;2024-01-30T02:00:03;20.92;;;9.20;;
29044;SDS011;16133;49.486;12.176;2024-01-30T02:02:30;18.45;;;8.88;;
29044;SDS011;16133;49.486;12.176;2024-01-30T02:04:56;18.17;;;7.85;;
29044;SDS011;16133;49.486;12.176;2024-01-30T02:07:23;19.83;;;8.35;;
29044;SDS011;16133;49.486;12.176;2024-01-30T02:09:48;18.45;;;8.15;;
29044;SDS011;16133;49.486;12.176;2024-01-30T02:12:14;23.83;;;8.65;;
29044;SDS011;16133;49.486;12.176;2024-01-30T02:14:45;17.27;;;7.30;;
29044;SDS011;16133;49.486;12.176;2024-01-30T02:17:12;15.23;;;7.43;;
29044;SDS011;16133;49.486;12.176;2024-01-30T02:19:38;20.90;;;8.95;;
29044;SDS011;16133;49.486;12.176;2024-01-30T02:22:04;18.08;;;8.75;;
29044;SDS011;16133;49.486;12.176;2024-01-30T02:24:29;16.33;;;7.63;;
29044;SDS011;16133;49.486;12.176;2024-01-30T02:26:55;17.27;;;8.07;;
29044;SDS011;16133;49.486;12.176;2024-01-30T02:29:20;19.85;;;8.45;;
29044;SDS011;16133;49.486;12.176;2024-01-30T02:31:46;20.88;;;9.18;;
29044;SDS011;16133;49.486;12.176;2024-01-30T02:34:11;18.90;;;8.05;;
29044;SDS011;16133;49.486;12.176;2024-01-30T02:36:37;18.90;;;8.05;;
29044;SDS011;16133;49.486;12.176;2024-01-30T02:39:02;15.88;;;7.45;;
29044;SDS011;16133;49.486;12.176;2024-01-30T02:41:28;21.23;;;8.80;;
29044;SDS011;16133;49.486;12.176;2024-01-30T02:43:53;14.30;;;7.60;;
29044;SDS011;16133;49.486;12.176;2024-01-30T02:46:19;19.25;;;8.13;;
29044;SDS011;16133;49.486;12.176;2024-01-30T02:48:44;18.67;;;7.53;;
29044;SDS011;16133;49.486;12.176;2024-01-30T02:51:09;19.58;;;8.18;;
29044;SDS011;16133;49.486;12.176;2024-01-30T02:53:35;17.27;;;7.97;;
29044;SDS011;16133;49.486;12.176;2024-01-30T02:56:02;20.98;;;8.40;;
29044;SDS011;16133;49.486;12.176;2024-01-30T02:58:28;17.15;;;7.03;;
29044;SDS011;16133;49.486;12.176;2024-01-30T03:00:53;17.23;;;7.25;;
29044;SDS011;16133;49.486;12.176;2024-01-30T03:03:19;24.40;;;8.98;;
29044;SDS011;16133;49.486;12.176;2024-01-30T03:05:44;20.80;;;8.60;;
29044;SDS011;16133;49.486;12.176;2024-01-30T03:08:09;18.60;;;8.45;;
29044;SDS011;16133;49.486;12.176;2024-01-30T03:10:35;21.30;;;8.23;;
29044;SDS011;16133;49.486;12.176;2024-01-30T03:13:00;17.90;;;7.82;;
29044;SDS011;16133;49.486;12.176;2024-01-30T03:15:26;15.32;;;8.50;;
29044;SDS011;16133;49.486;12.176;2024-01-30T03:17:51;17.73;;;9.07;;
29044;SDS011;16133;49.486;12.176;2024-01-30T03:20:16;18.10;;;8.88;;
29044;SDS011;16133;49.486;12.176;2024-01-30T03:22:42;17.73;;;8.07;;
29044;SDS011;16133;49.486;12.176;2024-01-30T03:25:07;21.05;;;9.30;;
29044;SDS011;16133;49.486;12.176;2024-01-30T03:27:32;22.05;;;8.32;;
29044;SDS011;16133;49.486;12.176;2024-01-30T03:29:58;19.38;;;9.00;;
29044;SDS011;16133;49.486;12.176;2024-01-30T03:32:23;16.02;;;8.43;;
29044;SDS011;16133;49.486;12.176;2024-01-30T03:34:48;19.90;;;8.57;;
29044;SDS011;16133;49.486;12.176;2024-01-30T03:37:14;19.35;;;7.68;;
29044;SDS011;16133;49.486;12.176;2024-01-30T03:39:39;23.35;;;7.80;;
29044;SDS011;16133;49.486;12.176;2024-01-30T03:42:05;19.05;;;8.60;;
29044;SDS011;16133;49.486;12.176;2024-01-30T03:44:30;18.40;;;8.63;;
29044;SDS011;16133;49.486;12.176;2024-01-30T03:46:55;20.60;;;9.63;;
29044;SDS011;16133;49.486;12.176;2024-01-30T03:49:21;18.30;;;8.57;;
29044;SDS011;16133;49.486;12.176;2024-01-30T03:51:46;21.63;;;8.73;;
29044;SDS011;16133;49.486;12.176;2024-01-30T03:54:12;16.60;;;8.48;;
29044;SDS011;16133;49.486;12.176;2024-01-30T03:56:38;20.40;;;9.25;;
29044;SDS011;16133;49.486;12.176;2024-01-30T03:59:03;15.13;;;8.10;;
29044;SDS011;16133;49.486;12.176;2024-01-30T04:01:29;21.65;;;8.30;;
29044;SDS011;16133;49.486;12.176;2024-01-30T04:03:54;18.45;;;8.50;;
29044;SDS011;16133;49.486;12.176;2024-01-30T04:06:19;17.90;;;9.02;;
29044;SDS011;16133;49.486;12.176;2024-01-30T04:08:45;23.80;;;9.07;;
29044;SDS011;16133;49.486;12.176;2024-01-30T04:11:10;19.98;;;9.45;;
29044;SDS011;16133;49.486;12.176;2024-01-30T04:13:36;16.38;;;8.00;;
29044;SDS011;16133;49.486;12.176;2024-01-30T04:16:01;16.10;;;8.43;;
29044;SDS011;16133;49.486;12.176;2024-01-30T04:18:27;18.98;;;8.40;;
29044;SDS011;16133;49.486;12.176;2024-01-30T04:20:53;16.60;;;7.68;;
29044;SDS011;16133;49.486;12.176;2024-01-30T04:23:19;16.42;;;7.60;;
29044;SDS011;16133;49.486;12.176;2024-01-30T04:25:44;16.38;;;8.25;;
29044;SDS011;16133;49.486;12.176;2024-01-30T04:28:10;16.48;;;8.18;;
29044;SDS011;16133;49.486;12.176;2024-01-30T04:30:37;23.48;;;8.40;;
29044;SDS011;16133;49.486;12.176;2024-01-30T04:33:02;18.92;;;8.82;;
29044;SDS011;16133;49.486;12.176;2024-01-30T04:35:28;16.42;;;8.45;;
29044;SDS011;16133;49.486;12.176;2024-01-30T04:37:53;19.95;;;8.48;;
29044;SDS011;16133;49.486;12.176;2024-01-30T04:40:20;18.70;;;8.75;;
29044;SDS011;16133;49.486;12.176;2024-01-30T04:42:46;19.40;;;8.05;;
29044;SDS011;16133;49.486;12.176;2024-01-30T04:45:11;16.55;;;8.18;;
29044;SDS011;16133;49.486;12.176;2024-01-30T04:47:37;17.27;;;8.40;;
29044;SDS011;16133;49.486;12.176;2024-01-30T04:50:04;16.85;;;8.35;;
29044;SDS011;16133;49.486;12.176;2024-01-30T04:52:31;23.85;;;9.77;;
29044;SDS011;16133;49.486;12.176;2024-01-30T04:54:56;18.27;;;9.10;;
29044;SDS011;16133;49.486;12.176;2024-01-30T05:00:43;21.70;;;9.50;;
29044;SDS011;16133;49.486;12.176;2024-01-30T05:03:09;20.10;;;9.25;;
29044;SDS011;16133;49.486;12.176;2024-01-30T05:05:34;22.13;;;9.10;;
29044;SDS011;16133;49.486;12.176;2024-01-30T05:07:59;16.67;;;8.48;;
29044;SDS011;16133;49.486;12.176;2024-01-30T05:10:25;18.08;;;8.48;;
29044;SDS011;16133;49.486;12.176;2024-01-30T05:12:50;18.60;;;8.57;;
29044;SDS011;16133;49.486;12.176;2024-01-30T05:15:16;15.60;;;7.72;;
29044;SDS011;16133;49.486;12.176;2024-01-30T05:17:41;18.95;;;8.30;;
29044;SDS011;16133;49.486;12.176;2024-01-30T05:20:06;20.77;;;9.88;;
29044;SDS011;16133;49.486;12.176;2024-01-30T05:22:32;16.50;;;8.38;;
29044;SDS011;16133;49.486;12.176;2024-01-30T05:24:57;21.08;;;10.20;;
29044;SDS011;16133;49.486;12.176;2024-01-30T05:27:23;23.83;;;9.50;;
29044;SDS011;16133;49.486;12.176;2024-01-30T05:29:48;19.13;;;9.52;;
29044;SDS011;16133;49.486;12.176;2024-01-30T05:32:14;15.48;;;8.60;;
29044;SDS011;16133;49.486;12.176;2024-01-30T05:34:40;17.90;;;8.77;;
29044;SDS011;16133;49.486;12.176;2024-01-30T05:37:05;26.13;;;10.65;;
29044;SDS011;16133;49.486;12.176;2024-01-30T05:39:31;22.10;;;10.00;;
29044;SDS011;16133;49.486;12.176;2024-01-30T05:41:57;22.88;;;10.30;;
29044;SDS011;16133;49.486;12.176;2024-01-30T05:44:23;25.70;;;10.27;;
29044;SDS011;16133;49.486;12.176;2024-01-30T05:46:48;20.67;;;10.63;;
29044;SDS011;16133;49.486;12.176;2024-01-30T05:49:14;24.40;;;9.48;;
29044;SDS011;16133;49.486;12.176;2024-01-30T05:51:39;23.42;;;11.43;;
29044;SDS011;16133;49.486;12.176;2024-01-30T05:54:04;24.30;;;10.73;;
29044;SDS011;16133;49.486;12.176;2024-01-30T05:56:30;20.10;;;9.80;;
29044;SDS011;16133;49.486;12.176;2024-01-30T05:58:55;20.65;;;9.20;;
29044;SDS011;16133;49.486;12.176;2024-01-30T06:01:20;23.52;;;9.48;;
29044;SDS011;16133;49.486;12.176;2024-01-30T06:03:46;22.25;;;11.80;;
29044;SDS011;16133;49.486;12.176;2024-01-30T06:06:11;18.55;;;9.98;;
29044;SDS011;16133;49.486;12.176;2024-01-30T06:08:36;19.48;;;9.93;;
29044;SDS011;16133;49.486;12.176;2024-01-30T06:11:02;23.77;;;10.18;;
29044;SDS011;16133;49.486;12.176;2024-01-30T06:13:27;20.02;;;10.25;;
29044;SDS011;16133;49.486;12.176;2024-01-30T06:15:53;17.80;;;9.25;;
29044;SDS011;16133;49.486;12.176;2024-01-30T06:18:18;25.05;;;10.18;;
29044;SDS011;16133;49.486;12.176;2024-01-30T06:20:44;26.23;;;11.07;;
29044;SDS011;16133;49.486;12.176;2024-01-30T06:23:09;19.50;;;9.93;;
29044;SDS011;16133;49.486;12.176;2024-01-30T06:25:38;21.52;;;9.82;;
29044;SDS011;16133;49.486;12.176;2024-01-30T06:28:03;24.23;;;9.88;;
29044;SDS011;16133;49.486;12.176;2024-01-30T06:30:29;22.02;;;10.93;;
29044;SDS011;16133;49.486;12.176;2024-01-30T06:32:54;22.08;;;10.25;;
29044;SDS011;16133;49.486;12.176;2024-01-30T06:35:20;21.80;;;10.77;;
29044;SDS011;16133;49.486;12.176;2024-01-30T06:37:46;21.17;;;9.98;;
29044;SDS011;16133;49.486;12.176;2024-01-30T06:40:11;25.20;;;12.20;;
29044;SDS011;16133;49.486;12.176;2024-01-30T06:42:37;22.50;;;11.05;;
29044;SDS011;16133;49.486;12.176;2024-01-30T06:45:03;25.35;;;11.48;;
29044;SDS011;16133;49.486;12.176;2024-01-30T06:47:28;25.75;;;11.68;;
29044;SDS011;16133;49.486;12.176;2024-01-30T06:49:56;29.05;;;13.13;;
29044;SDS011;16133;49.486;12.176;2024-01-30T06:52:21;25.23;;;11.65;;
29044;SDS011;16133;49.486;12.176;2024-01-30T06:54:46;24.85;;;10.82;;
29044;SDS011;16133;49.486;12.176;2024-01-30T06:57:12;21.88;;;10.70;;
29044;SDS011;16133;49.486;12.176;2024-01-30T06:59:39;27.02;;;12.10;;
29044;SDS011;16133;49.486;12.176;2024-01-30T07:02:09;25.23;;;13.23;;
29044;SDS011;16133;49.486;12.176;2024-01-30T07:04:35;24.73;;;11.18;;
29044;SDS011;16133;49.486;12.176;2024-01-30T07:07:02;25.65;;;12.10;;
29044;SDS011;16133;49.486;12.176;2024-01-30T07:09:29;29.98;;;14.15;;
29044;SDS011;16133;49.486;12.176;2024-01-30T07:11:55;31.30;;;14.20;;
29044;SDS011;16133;49.486;12.176;2024-01-30T07:14:23;33.50;;;15.60;;
29044;SDS011;16133;49.486;12.176;2024-01-30T07:16:48;34.88;;;16.80;;
29044;SDS011;16133;49.486;12.176;2024-01-30T07:19:15;35.53;;;14.55;;
29044;SDS011;16133;49.486;12.176;2024-01-30T07:21:40;31.65;;;13.32;;
29044;SDS011;16133;49.486;12.176;2024-01-30T07:24:06;27.13;;;12.82;;
29044;SDS011;16133;49.486;12.176;2024-01-30T07:26:31;28.38;;;12.80;;
29044;SDS011;16133;49.486;12.176;2024-01-30T07:28:57;28.48;;;13.68;;
29044;SDS011;16133;49.486;12.176;2024-01-30T07:31:22;27.40;;;13.18;;
29044;SDS011;16133;49.486;12.176;2024-01-30T07:33:48;36.38;;;16.90;;
29044;SDS011;16133;49.486;12.176;2024-01-30T07:36:13;42.55;;;19.45;;
29044;SDS011;16133;49.486;12.176;2024-01-30T07:38:39;33.90;;;16.15;;
29044;SDS011;16133;49.486;12.176;2024-01-30T07:41:05;33.17;;;15.30;;
29044;SDS011;16133;49.486;12.176;2024-01-30T07:43:30;29.33;;;14.07;;
29044;SDS011;16133;49.486;12.176;2024-01-30T07:45:56;31.02;;;13.85;;
29044;SDS011;16133;49.486;12.176;2024-01-30T07:48:21;28.70;;;13.32;;
29044;SDS011;16133;49.486;12.176;2024-01-30T07:50:46;30.90;;;14.70;;
29044;SDS011;16133;49.486;12.176;2024-01-30T07:53:12;29.90;;;15.00;;
29044;SDS011;16133;49.486;12.176;2024-01-30T07:55:37;33.30;;;14.98;;
29044;SDS011;16133;49.486;12.176;2024-01-30T07:58:03;30.17;;;14.48;;
29044;SDS011;16133;49.486;12.176;2024-01-30T08:00:29;32.90;;;15.25;;
29044;SDS011;16133;49.486;12.176;2024-01-30T08:02:55;34.05;;;15.55;;
29044;SDS011;16133;49.486;12.176;2024-01-30T08:05:20;34.78;;;16.17;;
29044;SDS011;16133;49.486;12.176;2024-01-30T08:07:47;39.38;;;15.65;;
29044;SDS011;16133;49.486;12.176;2024-01-30T08:10:14;36.45;;;14.88;;
29044;SDS011;16133;49.486;12.176;2024-01-30T08:12:39;38.05;;;17.98;;
29044;SDS011;16133;49.486;12.176;2024-01-30T08:15:05;32.25;;;15.27;;
29044;SDS011;16133;49.486;12.176;2024-01-30T08:17:30;36.22;;;16.35;;
29044;SDS011;16133;49.486;12.176;2024-01-30T08:19:59;35.60;;;15.80;;
29044;SDS011;16133;49.486;12.176;2024-01-30T08:22:24;37.42;;;16.00;;
29044;SDS011;16133;49.486;12.176;2024-01-30T08:24:50;32.95;;;14.65;;
29044;SDS011;16133;49.486;12.176;2024-01-30T08:27:15;40.97;;;16.70;;
29044;SDS011;16133;49.486;12.176;2024-01-30T08:29:41;38.63;;;16.88;;
29044;SDS011;16133;49.486;12.176;2024-01-30T08:32:06;36.13;;;17.13;;
29044;SDS011;16133;49.486;12.176;2024-01-30T08:34:32;35.63;;;16.85;;
29044;SDS011;16133;49.486;12.176;2024-01-30T08:36:57;39.50;;;17.20;;
29044;SDS011;16133;49.486;12.176;2024-01-30T08:39:22;39.13;;;16.50;;
29044;SDS011;16133;49.486;12.176;2024-01-30T08:41:48;38.35;;;15.90;;
29044;SDS011;16133;49.486;12.176;2024-01-30T08:44:13;37.25;;;17.25;;
29044;SDS011;16133;49.486;12.176;2024-01-30T08:46:39;38.60;;;18.30;;
29044;SDS011;16133;49.486;12.176;2024-01-30T08:49:04;38.25;;;17.20;;
29044;SDS011;16133;49.486;12.176;2024-01-30T08:51:30;40.13;;;18.73;;
29044;SDS011;16133;49.486;12.176;2024-01-30T08:53:55;46.30;;;20.02;;
29044;SDS011;16133;49.486;12.176;2024-01-30T08:56:21;49.40;;;20.10;;
29044;SDS011;16133;49.486;12.176;2024-01-30T08:58:46;43.72;;;19.40;;
29044;SDS011;16133;49.486;12.176;2024-01-30T09:01:11;48.50;;;21.10;;
29044;SDS011;16133;49.486;12.176;2024-01-30T09:03:37;49.38;;;21.17;;
29044;SDS011;16133;49.486;12.176;2024-01-30T09:06:07;52.92;;;24.70;;
29044;SDS011;16133;49.486;12.176;2024-01-30T09:08:33;56.78;;;24.73;;
29044;SDS011;16133;49.486;12.176;2024-01-30T09:10:59;58.10;;;24.83;;
29044;SDS011;16133;49.486;12.176;2024-01-30T09:13:24;68.10;;;26.00;;
29044;SDS011;16133;49.486;12.176;2024-01-30T09:15:49;61.60;;;26.73;;
29044;SDS011;16133;49.486;12.176;2024-01-30T09:18:18;60.25;;;26.00;;
29044;SDS011;16133;49.486;12.176;2024-01-30T09:20:43;63.92;;;25.52;;
29044;SDS011;16133;49.486;12.176;2024-01-30T09:23:12;63.70;;;25.33;;
29044;SDS011;16133;49.486;12.176;2024-01-30T09:25:37;61.80;;;25.55;;
29044;SDS011;16133;49.486;12.176;2024-01-30T09:28:03;64.57;;;26.58;;
29044;SDS011;16133;49.486;12.176;2024-01-30T09:30:28;66.55;;;27.00;;
29044;SDS011;16133;49.486;12.176;2024-01-30T09:32:54;61.67;;;26.23;;
29044;SDS011;16133;49.486;12.176;2024-01-30T09:35:19;63.42;;;25.67;;
29044;SDS011;16133;49.486;12.176;2024-01-30T09:37:45;60.70;;;25.88;;
29044;SDS011;16133;49.486;12.176;2024-01-30T09:40:10;68.95;;;27.95;;
29044;SDS011;16133;49.486;12.176;2024-01-30T09:42:36;59.50;;;25.60;;
29044;SDS011;16133;49.486;12.176;2024-01-30T09:45:05;56.28;;;24.27;;
29044;SDS011;16133;49.486;12.176;2024-01-30T09:47:37;55.95;;;24.65;;
29044;SDS011;16133;49.486;12.176;2024-01-30T09:50:07;60.60;;;27.25;;
29044;SDS011;16133;49.486;12.176;2024-01-30T09:52:33;68.32;;;25.55;;
29044;SDS011;16133;49.486;12.176;2024-01-30T09:55:00;50.65;;;24.90;;
29044;SDS011;16133;49.486;12.176;2024-01-30T09:57:26;59.55;;;24.10;;
29044;SDS011;16133;49.486;12.176;2024-01-30T09:59:51;56.97;;;23.05;;
29044;SDS011;16133;49.486;12.176;2024-01-30T10:02:19;56.28;;;24.75;;
29044;SDS011;16133;49.486;12.176;2024-01-30T10:04:46;54.55;;;22.70;;
29044;SDS011;16133;49.486;12.176;2024-01-30T10:07:13;47.28;;;21.02;;
29044;SDS011;16133;49.486;12.176;2024-01-30T10:09:39;47.90;;;21.95;;
29044;SDS011;16133;49.486;12.176;2024-01-30T10:12:05;49.30;;;22.58;;
29044;SDS011;16133;49.486;12.176;2024-01-30T10:14:31;51.88;;;20.88;;
29044;SDS011;16133;49.486;12.176;2024-01-30T10:16:57;44.20;;;21.73;;
29044;SDS011;16133;49.486;12.176;2024-01-30T10:19:23;40.17;;;19.98;;
29044;SDS011;16133;49.486;12.176;2024-01-30T10:21:48;53.78;;;23.73;;
29044;SDS011;16133;49.486;12.176;2024-01-30T10:24:14;55.08;;;23.00;;
29044;SDS011;16133;49.486;12.176;2024-01-30T10:26:39;46.90;;;21.65;;
29044;SDS011;16133;49.486;12.176;2024-01-30T10:29:05;46.53;;;21.80;;
29044;SDS011;16133;49.486;12.176;2024-01-30T10:31:30;50.10;;;22.95;;
29044;SDS011;16133;49.486;12.176;2024-01-30T10:33:56;58.10;;;25.70;;
29044;SDS011;16133;49.486;12.176;2024-01-30T10:36:23;55.58;;;24.75;;
29044;SDS011;16133;49.486;12.176;2024-01-30T10:38:53;50.90;;;23.70;;
29044;SDS011;16133;49.486;12.176;2024-01-30T10:41:22;49.40;;;23.15;;
29044;SDS011;16133;49.486;12.176;2024-01-30T10:43:55;56.40;;;24.48;;
29044;SDS011;16133;49.486;12.176;2024-01-30T10:46:28;54.83;;;24.83;;
29044;SDS011;16133;49.486;12.176;2024-01-30T10:48:57;53.85;;;23.52;;
29044;SDS011;16133;49.486;12.176;2024-01-30T10:51:24;48.10;;;23.05;;
29044;SDS011;16133;49.486;12.176;2024-01-30T10:53:51;47.22;;;22.20;;
29044;SDS011;16133;49.486;12.176;2024-01-30T10:56:18;56.97;;;25.92;;
29044;SDS011;16133;49.486;12.176;2024-01-30T10:58:46;47.58;;;23.90;;
29044;SDS011;16133;49.486;12.176;2024-01-30T11:01:13;47.63;;;22.85;;
29044;SDS011;16133;49.486;12.176;2024-01-30T11:03:40;42.22;;;21.73;;
29044;SDS011;16133;49.486;12.176;2024-01-30T11:06:10;44.72;;;20.30;;
29044;SDS011;16133;49.486;12.176;2024-01-30T11:08:36;46.75;;;21.33;;
29044;SDS011;16133;49.486;12.176;2024-01-30T11:11:01;47.97;;;21.83;;
29044;SDS011;16133;49.486;12.176;2024-01-30T11:13:29;41.35;;;19.30;;
29044;SDS011;16133;49.486;12.176;2024-01-30T11:15:54;43.92;;;20.60;;
29044;SDS011;16133;49.486;12.176;2024-01-30T11:18:24;45.00;;;21.70;;
29044;SDS011;16133;49.486;12.176;2024-01-30T11:20:50;43.20;;;20.65;;
29044;SDS011;16133;49.486;12.176;2024-01-30T11:23:16;40.38;;;19.13;;
29044;SDS011;16133;49.486;12.176;2024-01-30T11:25:43;35.42;;;18.13;;
29044;SDS011;16133;49.486;12.176;2024-01-30T11:28:13;41.67;;;19.42;;
29044;SDS011;16133;49.486;12.176;2024-01-30T11:33:12;44.83;;;19.10;;
29044;SDS011;16133;49.486;12.176;2024-01-30T11:35:40;34.30;;;17.48;;
29044;SDS011;16133;49.486;12.176;2024-01-30T11:38:07;33.13;;;15.68;;
29044;SDS011;16133;49.486;12.176;2024-01-30T11:40:33;34.63;;;16.67;;
29044;SDS011;16133;49.486;12.176;2024-01-30T11:43:00;31.33;;;15.60;;
29044;SDS011;16133;49.486;12.176;2024-01-30T11:45:27;31.10;;;15.65;;
29044;SDS011;16133;49.486;12.176;2024-01-30T11:47:53;30.45;;;16.08;;
29044;SDS011;16133;49.486;12.176;2024-01-30T11:50:18;31.02;;;14.85;;
29044;SDS011;16133;49.486;12.176;2024-01-30T11:52:44;35.08;;;15.48;;
29044;SDS011;16133;49.486;12.176;2024-01-30T11:55:09;32.63;;;15.38;;
29044;SDS011;16133;49.486;12.176;2024-01-30T11:57:35;28.27;;;14.77;;
29044;SDS011;16133;49.486;12.176;2024-01-30T12:00:02;27.35;;;13.10;;
29044;SDS011;16133;49.486;12.176;2024-01-30T12:02:34;29.20;;;14.80;;
29044;SDS011;16133;49.486;12.176;2024-01-30T12:05:03;30.15;;;15.02;;
29044;SDS011;16133;49.486;12.176;2024-01-30T12:07:32;30.20;;;14.43;;
29044;SDS011;16133;49.486;12.176;2024-01-30T12:09:58;25.75;;;13.65;;
29044;SDS011;16133;49.486;12.176;2024-01-30T12:12:27;31.50;;;14.45;;
29044;SDS011;16133;49.486;12.176;2024-01-30T12:14:53;32.78;;;14.13;;
29044;SDS011;16133;49.486;12.176;2024-01-30T12:17:29;27.98;;;13.80;;
29044;SDS011;16133;49.486;12.176;2024-01-30T12:20:02;30.45;;;14.02;;
29044;SDS011;16133;49.486;12.176;2024-01-30T12:22:33;27.60;;;13.80;;
29044;SDS011;16133;49.486;12.176;2024-01-30T12:25:04;27.27;;;14.73;;
29044;SDS011;16133;49.486;12.176;2024-01-30T12:27:30;29.80;;;14.07;;
29044;SDS011;16133;49.486;12.176;2024-01-30T12:29:56;33.38;;;15.15;;
29044;SDS011;16133;49.486;12.176;2024-01-30T12:32:24;24.55;;;13.70;;
29044;SDS011;16133;49.486;12.176;2024-01-30T12:34:50;24.88;;;13.82;;
29044;SDS011;16133;49.486;12.176;2024-01-30T12:37:15;27.30;;;12.98;;
29044;SDS011;16133;49.486;12.176;2024-01-30T12:39:46;27.95;;;14.40;;
29044;SDS011;16133;49.486;12.176;2024-01-30T12:42:12;28.67;;;15.48;;
29044;SDS011;16133;49.486;12.176;2024-01-30T12:44:38;32.13;;;14.15;;
29044;SDS011;16133;49.486;12.176;2024-01-30T12:47:04;26.15;;;13.43;;
29044;SDS011;16133;49.486;12.176;2024-01-30T12:49:29;29.55;;;14.57;;
29044;SDS011;16133;49.486;12.176;2024-01-30T12:51:58;31.88;;;14.50;;
29044;SDS011;16133;49.486;12.176;2024-01-30T12:54:23;27.77;;;13.45;;
29044;SDS011;16133;49.486;12.176;2024-01-30T12:56:49;25.85;;;12.40;;
29044;SDS011;16133;49.486;12.176;2024-01-30T12:59:14;26.15;;;14.13;;
29044;SDS011;16133;49.486;12.176;2024-01-30T13:01:40;30.10;;;14.07;;
29044;SDS011;16133;49.486;12.176;2024-01-30T13:04:05;31.75;;;12.63;;
29044;SDS011;16133;49.486;12.176;2024-01-30T13:06:31;35.35;;;14.55;;
29044;SDS011;16133;49.486;12.176;2024-01-30T13:08:56;28.35;;;14.93;;
29044;SDS011;16133;49.486;12.176;2024-01-30T13:11:21;27.45;;;13.40;;
29044;SDS011;16133;49.486;12.176;2024-01-30T13:13:47;27.17;;;12.80;;
29044;SDS011;16133;49.486;12.176;2024-01-30T13:16:12;27.30;;;12.95;;
29044;SDS011;16133;49.486;12.176;2024-01-30T13:18:38;30.15;;;14.43;;
29044;SDS011;16133;49.486;12.176;2024-01-30T13:21:03;26.70;;;14.30;;
29044;SDS011;16133;49.486;12.176;2024-01-30T13:23:29;33.25;;;14.80;;
29044;SDS011;16133;49.486;12.176;2024-01-30T13:25:54;26.13;;;12.85;;
29044;SDS011;16133;49.486;12.176;2024-01-30T13:28:23;25.10;;;12.85;;
29044;SDS011;16133;49.486;12.176;2024-01-30T13:30:51;31.38;;;15.60;;
29044;SDS011;16133;49.486;12.176;2024-01-30T13:33:17;29.08;;;15.18;;
29044;SDS011;16133;49.486;12.176;2024-01-30T13:35:42;25.23;;;12.10;;
29044;SDS011;16133;49.486;12.176;2024-01-30T13:38:08;21.00;;;12.02;;
29044;SDS011;16133;49.486;12.176;2024-01-30T13:40:33;24.15;;;11.35;;
29044;SDS011;16133;49.486;12.176;2024-01-30T13:42:58;23.10;;;10.82;;
29044;SDS011;16133;49.486;12.176;2024-01-30T13:45:24;19.73;;;10.50;;
29044;SDS011;16133;49.486;12.176;2024-01-30T13:47:49;18.73;;;9.80;;
29044;SDS011;16133;49.486;12.176;2024-01-30T13:50:15;21.13;;;10.98;;
29044;SDS011;16133;49.486;12.176;2024-01-30T13:52:42;20.52;;;11.02;;
29044;SDS011;16133;49.486;12.176;2024-01-30T13:55:08;20.65;;;10.02;;
29044;SDS011;16133;49.486;12.176;2024-01-30T13:57:34;19.33;;;9.60;;
29044;SDS011;16133;49.486;12.176;2024-01-30T14:00:01;18.85;;;9.52;;
29044;SDS011;16133;49.486;12.176;2024-01-30T14:02:31;30.38;;;14.25;;
29044;SDS011;16133;49.486;12.176;2024-01-30T14:04:57;20.95;;;11.13;;
29044;SDS011;16133;49.486;12.176;2024-01-30T14:07:22;26.30;;;11.82;;
29044;SDS011;16133;49.486;12.176;2024-01-30T14:09:48;24.10;;;12.70;;
29044;SDS011;16133;49.486;12.176;2024-01-30T14:12:14;20.85;;;11.70;;